PWSweather.com
Personal Weather Stations
Station Observations
K4FB1
Clubhouse Heritage, Lakeland, FL 33812

Clubhouse HeritageLakeland, FL 33812

Lat: 27.969224, Lon: -81.897769

Elevation: 145

Station Type: Davis Vantage Pro2

http://www.ClubhouseWX.com

High Low Average
Temperature 88.9°F31.6°C 60.1°F15.6°C 74.2°F23.4°C
Dew Point 74.2°F23.4°C -33.9°F-36.6°C 6.9°F-13.9°C
Winds 12.0 mph 19.3 kmh 1.0 mph 1.6 kmh 6.0 mph S9.7 kmh S
Wind Gusts 28.0 mph45.1 kmh 2.0 mph3.2 kmh 14.0 mph22.5 kmh
Humidity 65% 0% 21%
Pressure 30.00 in1015.9 mb 29.86 in1011.2 mb -
Precipitation 0.27 in6.9 mm - -
Hour Temp Dew Point Humidity Winds Wind Gusts Pressure Precip Precip Rate Daily Precip Total
12:00 AM 69.4°F20.8°C 34.9°F1.6°C 28% 1.0 mph ESE1.6 kmh ESE 3.0 mph4.8 kmh 30.01 in1016.3 mb 0.00 in0.0 mm 0.00 in0.0 mm 0.00 in0.0 mm
12:05 AM 69.3°F20.7°C 38.2°F3.4°C 32% 1.0 mph ESE1.6 kmh ESE 3.0 mph4.8 kmh 30.01 in1016.3 mb 0.00 in0.0 mm 0.00 in0.0 mm 0.00 in0.0 mm
12:10 AM 69.2°F20.7°C 39.6°F4.2°C 34% Calm Calm 1.0 mph1.6 kmh 30.01 in1016.3 mb 0.00 in0.0 mm 0.00 in0.0 mm 0.00 in0.0 mm
12:15 AM 69.1°F20.6°C 38.0°F3.3°C 32% Calm Calm 1.0 mph1.6 kmh 30.01 in1016.3 mb 0.00 in0.0 mm 0.00 in0.0 mm 0.00 in0.0 mm
12:20 AM 69.0°F20.6°C 33.6°F0.9°C 27% Calm Calm 1.0 mph1.6 kmh 30.01 in1016.3 mb 0.00 in0.0 mm 0.00 in0.0 mm 0.00 in0.0 mm
12:25 AM 68.9°F20.5°C 34.4°F1.3°C 28% 1.0 mph ESE1.6 kmh ESE 2.0 mph3.2 kmh 30.01 in1016.3 mb 0.00 in0.0 mm 0.00 in0.0 mm 0.00 in0.0 mm
12:30 AM 68.9°F20.5°C 30.6°F-0.8°C 24% 1.0 mph ESE1.6 kmh ESE 2.0 mph3.2 kmh 30.01 in1016.3 mb 0.00 in0.0 mm 0.00 in0.0 mm 0.00 in0.0 mm
12:35 AM 69.0°F20.6°C 23.7°F-4.6°C 18% 1.0 mph ESE1.6 kmh ESE 3.0 mph4.8 kmh 30.00 in1015.9 mb 0.00 in0.0 mm 0.00 in0.0 mm 0.00 in0.0 mm
12:40 AM 69.1°F20.6°C 27.5°F-2.5°C 21% 1.0 mph ESE1.6 kmh ESE 3.0 mph4.8 kmh 30.00 in1015.9 mb 0.00 in0.0 mm 0.00 in0.0 mm 0.00 in0.0 mm
12:45 AM 69.2°F20.7°C 29.8°F-1.2°C 23% 1.0 mph ESE1.6 kmh ESE 3.0 mph4.8 kmh 30.00 in1015.9 mb 0.00 in0.0 mm 0.00 in0.0 mm 0.00 in0.0 mm
12:50 AM 69.4°F20.8°C 31.0°F-0.6°C 24% 1.0 mph ESE1.6 kmh ESE 2.0 mph3.2 kmh 30.00 in1015.9 mb 0.00 in0.0 mm 0.00 in0.0 mm 0.00 in0.0 mm
12:55 AM 69.4°F20.8°C 33.0°F0.6°C 26% 1.0 mph ESE1.6 kmh ESE 2.0 mph3.2 kmh 30.00 in1015.9 mb 0.00 in0.0 mm 0.00 in0.0 mm 0.00 in0.0 mm
01:00 AM 69.5°F20.8°C 34.0°F1.1°C 27% 1.0 mph ESE1.6 kmh ESE 2.0 mph3.2 kmh 30.00 in1015.9 mb 0.00 in0.0 mm 0.00 in0.0 mm 0.00 in0.0 mm
01:05 AM 69.5°F20.8°C 35.8°F2.1°C 29% 1.0 mph ESE1.6 kmh ESE 2.0 mph3.2 kmh 30.00 in1015.9 mb 0.00 in0.0 mm 0.00 in0.0 mm 0.00 in0.0 mm
01:10 AM 69.6°F20.9°C 34.1°F1.2°C 27% 1.0 mph ESE1.6 kmh ESE 3.0 mph4.8 kmh 30.00 in1015.9 mb 0.00 in0.0 mm 0.00 in0.0 mm 0.00 in0.0 mm
01:15 AM 69.7°F20.9°C 35.1°F1.7°C 28% 2.0 mph ESE3.2 kmh ESE 3.0 mph4.8 kmh 30.00 in1015.9 mb 0.00 in0.0 mm 0.00 in0.0 mm 0.00 in0.0 mm
01:20 AM 69.7°F20.9°C 36.0°F2.2°C 29% 2.0 mph ESE3.2 kmh ESE 4.0 mph6.4 kmh 29.99 in1015.6 mb 0.00 in0.0 mm 0.00 in0.0 mm 0.00 in0.0 mm
01:25 AM 69.8°F21.0°C 37.8°F3.2°C 31% 2.0 mph ESE3.2 kmh ESE 4.0 mph6.4 kmh 29.99 in1015.6 mb 0.00 in0.0 mm 0.00 in0.0 mm 0.00 in0.0 mm
01:30 AM 69.8°F21.0°C 38.6°F3.7°C 32% 1.0 mph ESE1.6 kmh ESE 3.0 mph4.8 kmh 29.99 in1015.6 mb 0.00 in0.0 mm 0.00 in0.0 mm 0.00 in0.0 mm
01:35 AM 69.8°F21.0°C 39.4°F4.1°C 33% 1.0 mph ESE1.6 kmh ESE 3.0 mph4.8 kmh 29.99 in1015.6 mb 0.00 in0.0 mm 0.00 in0.0 mm 0.00 in0.0 mm
01:40 AM 69.8°F21.0°C 40.2°F4.6°C 34% 1.0 mph ESE1.6 kmh ESE 3.0 mph4.8 kmh 29.98 in1015.2 mb 0.00 in0.0 mm 0.00 in0.0 mm 0.00 in0.0 mm
01:45 AM 69.9°F21.1°C 40.2°F4.6°C 34% 2.0 mph ESE3.2 kmh ESE 3.0 mph4.8 kmh 29.98 in1015.2 mb 0.00 in0.0 mm 0.00 in0.0 mm 0.00 in0.0 mm
01:50 AM 69.9°F21.1°C 41.0°F5.0°C 35% 2.0 mph ESE3.2 kmh ESE 4.0 mph6.4 kmh 29.98 in1015.2 mb 0.00 in0.0 mm 0.00 in0.0 mm 0.00 in0.0 mm
01:55 AM 69.9°F21.1°C 41.7°F5.4°C 36% 2.0 mph ESE3.2 kmh ESE 4.0 mph6.4 kmh 29.98 in1015.2 mb 0.00 in0.0 mm 0.00 in0.0 mm 0.00 in0.0 mm
02:00 AM 69.9°F21.1°C 43.1°F6.2°C 38% 3.0 mph SE4.8 kmh SE 4.0 mph6.4 kmh 29.98 in1015.2 mb 0.00 in0.0 mm 0.00 in0.0 mm 0.00 in0.0 mm
02:05 AM 69.9°F21.1°C 43.8°F6.6°C 39% 2.0 mph SE3.2 kmh SE 4.0 mph6.4 kmh 29.98 in1015.2 mb 0.00 in0.0 mm 0.00 in0.0 mm 0.00 in0.0 mm
02:10 AM 70.0°F21.1°C 44.6°F7.0°C 40% 3.0 mph SE4.8 kmh SE 4.0 mph6.4 kmh 29.98 in1015.2 mb 0.00 in0.0 mm 0.00 in0.0 mm 0.00 in0.0 mm
02:15 AM 70.0°F21.1°C 45.2°F7.3°C 41% 3.0 mph SE4.8 kmh SE 5.0 mph8.0 kmh 29.98 in1015.2 mb 0.00 in0.0 mm 0.00 in0.0 mm 0.00 in0.0 mm
02:20 AM 70.1°F21.2°C 45.9°F7.7°C 42% 3.0 mph SE4.8 kmh SE 5.0 mph8.0 kmh 29.98 in1015.2 mb 0.00 in0.0 mm 0.00 in0.0 mm 0.00 in0.0 mm
02:25 AM 70.1°F21.2°C 45.3°F7.4°C 41% 3.0 mph SE4.8 kmh SE 5.0 mph8.0 kmh 29.98 in1015.2 mb 0.00 in0.0 mm 0.00 in0.0 mm 0.00 in0.0 mm
02:30 AM 70.1°F21.2°C 45.3°F7.4°C 41% 3.0 mph SE4.8 kmh SE 5.0 mph8.0 kmh 29.98 in1015.2 mb 0.00 in0.0 mm 0.00 in0.0 mm 0.00 in0.0 mm
02:35 AM 70.2°F21.2°C 44.1°F6.7°C 39% 3.0 mph SE4.8 kmh SE 6.0 mph9.7 kmh 29.97 in1014.9 mb 0.00 in0.0 mm 0.00 in0.0 mm 0.00 in0.0 mm
02:40 AM 70.4°F21.3°C 39.9°F4.4°C 33% 3.0 mph SE4.8 kmh SE 7.0 mph11.3 kmh 29.97 in1014.9 mb 0.00 in0.0 mm 0.00 in0.0 mm 0.00 in0.0 mm
02:45 AM 70.6°F21.4°C 38.5°F3.6°C 31% 4.0 mph SE6.4 kmh SE 7.0 mph11.3 kmh 29.97 in1014.9 mb 0.00 in0.0 mm 0.00 in0.0 mm 0.00 in0.0 mm
02:50 AM 70.8°F21.6°C 34.2°F1.2°C 26% 3.0 mph SE4.8 kmh SE 6.0 mph9.7 kmh 29.97 in1014.9 mb 0.00 in0.0 mm 0.00 in0.0 mm 0.00 in0.0 mm
02:55 AM 71.1°F21.7°C 31.4°F-0.3°C 23% 3.0 mph SE4.8 kmh SE 6.0 mph9.7 kmh 29.97 in1014.9 mb 0.00 in0.0 mm 0.00 in0.0 mm 0.00 in0.0 mm
03:00 AM 71.3°F21.8°C 30.5°F-0.8°C 22% 4.0 mph SE6.4 kmh SE 6.0 mph9.7 kmh 29.97 in1014.9 mb 0.00 in0.0 mm 0.00 in0.0 mm 0.00 in0.0 mm
03:05 AM 71.4°F21.9°C 27.0°F-2.8°C 19% 3.0 mph SE4.8 kmh SE 5.0 mph8.0 kmh 29.97 in1014.9 mb 0.00 in0.0 mm 0.00 in0.0 mm 0.00 in0.0 mm
03:10 AM 71.6°F22.0°C 24.4°F-4.2°C 17% 3.0 mph SE4.8 kmh SE 5.0 mph8.0 kmh 29.97 in1014.9 mb 0.00 in0.0 mm 0.00 in0.0 mm 0.00 in0.0 mm
03:15 AM 71.8°F22.1°C 20.0°F-6.7°C 14% 3.0 mph SE4.8 kmh SE 7.0 mph11.3 kmh 29.97 in1014.9 mb 0.00 in0.0 mm 0.00 in0.0 mm 0.00 in0.0 mm
03:20 AM 71.9°F22.2°C 18.3°F-7.6°C 13% 4.0 mph SE6.4 kmh SE 7.0 mph11.3 kmh 29.97 in1014.9 mb 0.00 in0.0 mm 0.00 in0.0 mm 0.00 in0.0 mm
03:25 AM 72.0°F22.2°C 14.6°F-9.7°C 11% 4.0 mph SE6.4 kmh SE 8.0 mph12.9 kmh 29.97 in1014.9 mb 0.00 in0.0 mm 0.00 in0.0 mm 0.00 in0.0 mm
03:30 AM 72.1°F22.3°C 10.1°F-12.2°C 9% 4.0 mph SE6.4 kmh SE 8.0 mph12.9 kmh 29.97 in1014.9 mb 0.00 in0.0 mm 0.00 in0.0 mm 0.00 in0.0 mm
03:35 AM 72.2°F22.3°C -2.6°F-19.2°C 5% 4.0 mph SE6.4 kmh SE 9.0 mph14.5 kmh 29.96 in1014.6 mb 0.00 in0.0 mm 0.00 in0.0 mm 0.00 in0.0 mm
03:40 AM 72.2°F22.3°C -21.0°F-29.4°C 2% 4.0 mph SE6.4 kmh SE 9.0 mph14.5 kmh 29.97 in1014.9 mb 0.00 in0.0 mm 0.00 in0.0 mm 0.00 in0.0 mm
03:45 AM 72.2°F22.3°C -33.9°F-36.6°C 1% 4.0 mph SE6.4 kmh SE 7.0 mph11.3 kmh 29.97 in1014.9 mb 0.00 in0.0 mm 0.00 in0.0 mm 0.00 in0.0 mm
03:50 AM 72.2°F22.3°C -33.9°F-36.6°C 0% 4.0 mph SE6.4 kmh SE 7.0 mph11.3 kmh 29.96 in1014.6 mb 0.00 in0.0 mm 0.00 in0.0 mm 0.00 in0.0 mm
03:55 AM 72.2°F22.3°C -33.9°F-36.6°C 0% 4.0 mph SE6.4 kmh SE 7.0 mph11.3 kmh 29.96 in1014.6 mb 0.00 in0.0 mm 0.00 in0.0 mm 0.00 in0.0 mm
04:00 AM 72.2°F22.3°C -33.9°F-36.6°C 0% 4.0 mph SE6.4 kmh SE 9.0 mph14.5 kmh 29.96 in1014.6 mb 0.00 in0.0 mm 0.00 in0.0 mm 0.00 in0.0 mm
04:05 AM 72.2°F22.3°C -33.9°F-36.6°C 0% 4.0 mph SE6.4 kmh SE 9.0 mph14.5 kmh 29.96 in1014.6 mb 0.00 in0.0 mm 0.00 in0.0 mm 0.00 in0.0 mm
04:10 AM 72.2°F22.3°C -33.9°F-36.6°C 0% 4.0 mph SE6.4 kmh SE 8.0 mph12.9 kmh 29.96 in1014.6 mb 0.00 in0.0 mm 0.00 in0.0 mm 0.00 in0.0 mm
04:15 AM 72.3°F22.4°C -33.9°F-36.6°C 0% 4.0 mph SE6.4 kmh SE 8.0 mph12.9 kmh 29.96 in1014.6 mb 0.00 in0.0 mm 0.00 in0.0 mm 0.00 in0.0 mm
04:20 AM 72.4°F22.4°C -33.9°F-36.6°C 0% 4.0 mph SE6.4 kmh SE 8.0 mph12.9 kmh 29.96 in1014.6 mb 0.00 in0.0 mm 0.00 in0.0 mm 0.00 in0.0 mm
04:25 AM 72.5°F22.5°C -33.9°F-36.6°C 0% 4.0 mph SE6.4 kmh SE 9.0 mph14.5 kmh 29.96 in1014.6 mb 0.00 in0.0 mm 0.00 in0.0 mm 0.00 in0.0 mm
04:30 AM 72.6°F22.6°C -33.9°F-36.6°C 0% 5.0 mph SE8.0 kmh SE 9.0 mph14.5 kmh 29.96 in1014.6 mb 0.00 in0.0 mm 0.00 in0.0 mm 0.00 in0.0 mm
04:35 AM 72.7°F22.6°C -33.9°F-36.6°C 0% 5.0 mph SE8.0 kmh SE 11.0 mph17.7 kmh 29.96 in1014.6 mb 0.00 in0.0 mm 0.00 in0.0 mm 0.00 in0.0 mm
04:40 AM 72.8°F22.7°C -33.9°F-36.6°C 0% 5.0 mph SE8.0 kmh SE 11.0 mph17.7 kmh 29.96 in1014.6 mb 0.00 in0.0 mm 0.00 in0.0 mm 0.00 in0.0 mm
04:45 AM 72.9°F22.7°C -33.9°F-36.6°C 0% 5.0 mph SE8.0 kmh SE 10.0 mph16.1 kmh 29.95 in1014.2 mb 0.00 in0.0 mm 0.00 in0.0 mm 0.00 in0.0 mm
04:50 AM 73.0°F22.8°C -33.9°F-36.6°C 0% 5.0 mph SE8.0 kmh SE 10.0 mph16.1 kmh 29.95 in1014.2 mb 0.00 in0.0 mm 0.00 in0.0 mm 0.00 in0.0 mm
04:55 AM 73.0°F22.8°C -33.9°F-36.6°C 0% 5.0 mph SE8.0 kmh SE 9.0 mph14.5 kmh 29.95 in1014.2 mb 0.00 in0.0 mm 0.00 in0.0 mm 0.00 in0.0 mm
05:00 AM 73.1°F22.8°C -33.9°F-36.6°C 0% 5.0 mph SE8.0 kmh SE 9.0 mph14.5 kmh 29.95 in1014.2 mb 0.00 in0.0 mm 0.00 in0.0 mm 0.00 in0.0 mm
05:05 AM 73.2°F22.9°C -33.9°F-36.6°C 0% 6.0 mph SE9.7 kmh SE 10.0 mph16.1 kmh 29.95 in1014.2 mb 0.00 in0.0 mm 0.00 in0.0 mm 0.00 in0.0 mm
05:10 AM 73.2°F22.9°C -33.9°F-36.6°C 0% 6.0 mph SE9.7 kmh SE 10.0 mph16.1 kmh 29.95 in1014.2 mb 0.00 in0.0 mm 0.00 in0.0 mm 0.00 in0.0 mm
05:15 AM 73.4°F23.0°C -33.9°F-36.6°C 0% 6.0 mph SE9.7 kmh SE 13.0 mph20.9 kmh 29.95 in1014.2 mb 0.00 in0.0 mm 0.00 in0.0 mm 0.00 in0.0 mm
05:20 AM 73.5°F23.1°C -33.9°F-36.6°C 0% 6.0 mph SE9.7 kmh SE 13.0 mph20.9 kmh 29.95 in1014.2 mb 0.00 in0.0 mm 0.00 in0.0 mm 0.00 in0.0 mm
05:25 AM 73.6°F23.1°C -33.9°F-36.6°C 0% 5.0 mph SSE8.0 kmh SSE 10.0 mph16.1 kmh 29.95 in1014.2 mb 0.00 in0.0 mm 0.00 in0.0 mm 0.00 in0.0 mm
05:30 AM 73.7°F23.2°C -33.9°F-36.6°C 0% 6.0 mph SSE9.7 kmh SSE 11.0 mph17.7 kmh 29.95 in1014.2 mb 0.00 in0.0 mm 0.00 in0.0 mm 0.00 in0.0 mm
05:35 AM 73.8°F23.2°C -33.9°F-36.6°C 0% 7.0 mph SSE11.3 kmh SSE 15.0 mph24.1 kmh 29.95 in1014.2 mb 0.00 in0.0 mm 0.00 in0.0 mm 0.00 in0.0 mm
05:40 AM 73.9°F23.3°C -33.9°F-36.6°C 0% 7.0 mph SE11.3 kmh SE 15.0 mph24.1 kmh 29.95 in1014.2 mb 0.00 in0.0 mm 0.00 in0.0 mm 0.00 in0.0 mm
05:45 AM 74.0°F23.3°C -33.9°F-36.6°C 0% 7.0 mph SE11.3 kmh SE 14.0 mph22.5 kmh 29.94 in1013.9 mb 0.00 in0.0 mm 0.00 in0.0 mm 0.00 in0.0 mm
05:50 AM 74.0°F23.3°C -33.9°F-36.6°C 0% 7.0 mph SSE11.3 kmh SSE 13.0 mph20.9 kmh 29.94 in1013.9 mb 0.00 in0.0 mm 0.00 in0.0 mm 0.00 in0.0 mm
05:55 AM 73.9°F23.3°C -33.9°F-36.6°C 0% 6.0 mph SSE9.7 kmh SSE 13.0 mph20.9 kmh 29.95 in1014.2 mb 0.00 in0.0 mm 0.00 in0.0 mm 0.00 in0.0 mm
06:00 AM 73.9°F23.3°C -33.9°F-36.6°C 0% 6.0 mph SSE9.7 kmh SSE 11.0 mph17.7 kmh 29.95 in1014.2 mb 0.00 in0.0 mm 0.00 in0.0 mm 0.00 in0.0 mm
06:05 AM 73.9°F23.3°C -33.9°F-36.6°C 0% 6.0 mph SSE9.7 kmh SSE 12.0 mph19.3 kmh 29.95 in1014.2 mb 0.00 in0.0 mm 0.00 in0.0 mm 0.00 in0.0 mm
06:10 AM 73.9°F23.3°C -33.9°F-36.6°C 0% 7.0 mph SSE11.3 kmh SSE 15.0 mph24.1 kmh 29.95 in1014.2 mb 0.00 in0.0 mm 0.00 in0.0 mm 0.00 in0.0 mm
06:15 AM 73.9°F23.3°C -33.9°F-36.6°C 0% 7.0 mph SE11.3 kmh SE 15.0 mph24.1 kmh 29.95 in1014.2 mb 0.00 in0.0 mm 0.00 in0.0 mm 0.00 in0.0 mm
06:20 AM 73.9°F23.3°C -33.9°F-36.6°C 0% 6.0 mph SE9.7 kmh SE 12.0 mph19.3 kmh 29.94 in1013.9 mb 0.00 in0.0 mm 0.00 in0.0 mm 0.00 in0.0 mm
06:25 AM 74.0°F23.3°C -33.9°F-36.6°C 0% 7.0 mph SE11.3 kmh SE 12.0 mph19.3 kmh 29.94 in1013.9 mb 0.00 in0.0 mm 0.00 in0.0 mm 0.00 in0.0 mm
06:30 AM 74.0°F23.3°C -33.9°F-36.6°C 0% 7.0 mph SE11.3 kmh SE 14.0 mph22.5 kmh 29.94 in1013.9 mb 0.00 in0.0 mm 0.00 in0.0 mm 0.00 in0.0 mm
06:35 AM 74.1°F23.4°C -33.9°F-36.6°C 0% 8.0 mph SE12.9 kmh SE 19.0 mph30.6 kmh 29.94 in1013.9 mb 0.00 in0.0 mm 0.00 in0.0 mm 0.00 in0.0 mm
06:40 AM 74.1°F23.4°C -33.9°F-36.6°C 0% 9.0 mph SE14.5 kmh SE 19.0 mph30.6 kmh 29.93 in1013.5 mb 0.00 in0.0 mm 0.00 in0.0 mm 0.00 in0.0 mm
06:45 AM 74.1°F23.4°C -33.9°F-36.6°C 0% 8.0 mph SE12.9 kmh SE 17.0 mph27.4 kmh 29.93 in1013.5 mb 0.00 in0.0 mm 0.00 in0.0 mm 0.00 in0.0 mm
06:50 AM 74.2°F23.4°C -33.9°F-36.6°C 0% 7.0 mph SE11.3 kmh SE 16.0 mph25.7 kmh 29.94 in1013.9 mb 0.00 in0.0 mm 0.00 in0.0 mm 0.00 in0.0 mm
06:55 AM 74.2°F23.4°C -33.9°F-36.6°C 0% 7.0 mph SE11.3 kmh SE 15.0 mph24.1 kmh 29.94 in1013.9 mb 0.00 in0.0 mm 0.00 in0.0 mm 0.00 in0.0 mm
07:00 AM 74.2°F23.4°C -33.9°F-36.6°C 0% 8.0 mph SE12.9 kmh SE 16.0 mph25.7 kmh 29.94 in1013.9 mb 0.00 in0.0 mm 0.00 in0.0 mm 0.00 in0.0 mm
07:05 AM 74.2°F23.4°C -33.9°F-36.6°C 0% 8.0 mph SE12.9 kmh SE 16.0 mph25.7 kmh 29.94 in1013.9 mb 0.00 in0.0 mm 0.00 in0.0 mm 0.00 in0.0 mm
07:10 AM 74.2°F23.4°C -33.9°F-36.6°C 0% 7.0 mph SE11.3 kmh SE 15.0 mph24.1 kmh 29.94 in1013.9 mb 0.00 in0.0 mm 0.00 in0.0 mm 0.00 in0.0 mm
07:15 AM 74.3°F23.5°C -33.9°F-36.6°C 0% 8.0 mph SE12.9 kmh SE 14.0 mph22.5 kmh 29.95 in1014.2 mb 0.00 in0.0 mm 0.00 in0.0 mm 0.00 in0.0 mm
07:20 AM 74.3°F23.5°C -33.9°F-36.6°C 0% 7.0 mph SSE11.3 kmh SSE 14.0 mph22.5 kmh 29.95 in1014.2 mb 0.00 in0.0 mm 0.00 in0.0 mm 0.00 in0.0 mm
07:25 AM 74.3°F23.5°C -33.9°F-36.6°C 0% 7.0 mph SSE11.3 kmh SSE 12.0 mph19.3 kmh 29.95 in1014.2 mb 0.00 in0.0 mm 0.00 in0.0 mm 0.00 in0.0 mm
07:30 AM 74.3°F23.5°C -33.9°F-36.6°C 0% 8.0 mph SSE12.9 kmh SSE 17.0 mph27.4 kmh 29.96 in1014.6 mb 0.00 in0.0 mm 0.00 in0.0 mm 0.00 in0.0 mm
07:35 AM 74.3°F23.5°C -33.9°F-36.6°C 0% 7.0 mph SSE11.3 kmh SSE 17.0 mph27.4 kmh 29.95 in1014.2 mb 0.00 in0.0 mm 0.00 in0.0 mm 0.00 in0.0 mm
07:40 AM 74.4°F23.6°C -33.9°F-36.6°C 0% 7.0 mph SSE11.3 kmh SSE 13.0 mph20.9 kmh 29.96 in1014.6 mb 0.00 in0.0 mm 0.00 in0.0 mm 0.00 in0.0 mm
07:45 AM 74.4°F23.6°C -33.9°F-36.6°C 0% 7.0 mph SSE11.3 kmh SSE 13.0 mph20.9 kmh 29.96 in1014.6 mb 0.00 in0.0 mm 0.00 in0.0 mm 0.00 in0.0 mm
07:50 AM 74.5°F23.6°C -33.9°F-36.6°C 0% 7.0 mph SE11.3 kmh SE 13.0 mph20.9 kmh 29.96 in1014.6 mb 0.00 in0.0 mm 0.00 in0.0 mm 0.00 in0.0 mm
07:55 AM 74.5°F23.6°C -33.9°F-36.6°C 0% 6.0 mph SE9.7 kmh SE 13.0 mph20.9 kmh 29.95 in1014.2 mb 0.00 in0.0 mm 0.00 in0.0 mm 0.00 in0.0 mm
08:00 AM 74.6°F23.7°C -33.9°F-36.6°C 0% 6.0 mph SE9.7 kmh SE 15.0 mph24.1 kmh 29.96 in1014.6 mb 0.00 in0.0 mm 0.00 in0.0 mm 0.00 in0.0 mm
08:05 AM 74.7°F23.7°C -33.9°F-36.6°C 0% 7.0 mph SE11.3 kmh SE 15.0 mph24.1 kmh 29.96 in1014.6 mb 0.00 in0.0 mm 0.00 in0.0 mm 0.00 in0.0 mm
08:10 AM 74.8°F23.8°C -33.9°F-36.6°C 0% 8.0 mph SE12.9 kmh SE 15.0 mph24.1 kmh 29.95 in1014.2 mb 0.00 in0.0 mm 0.00 in0.0 mm 0.00 in0.0 mm
08:15 AM 75.0°F23.9°C -33.9°F-36.6°C 0% 9.0 mph SE14.5 kmh SE 15.0 mph24.1 kmh 29.95 in1014.2 mb 0.00 in0.0 mm 0.00 in0.0 mm 0.00 in0.0 mm
08:20 AM 75.1°F23.9°C -33.9°F-36.6°C 0% 9.0 mph SE14.5 kmh SE 18.0 mph29.0 kmh 29.96 in1014.6 mb 0.00 in0.0 mm 0.00 in0.0 mm 0.00 in0.0 mm
08:25 AM 75.2°F24.0°C -33.9°F-36.6°C 0% 10.0 mph SE16.1 kmh SE 18.0 mph29.0 kmh 29.96 in1014.6 mb 0.00 in0.0 mm 0.00 in0.0 mm 0.00 in0.0 mm
08:30 AM 75.4°F24.1°C -33.9°F-36.6°C 0% 9.0 mph SE14.5 kmh SE 17.0 mph27.4 kmh 29.96 in1014.6 mb 0.00 in0.0 mm 0.00 in0.0 mm 0.00 in0.0 mm
08:35 AM 75.7°F24.3°C -33.9°F-36.6°C 0% 8.0 mph SE12.9 kmh SE 15.0 mph24.1 kmh 29.96 in1014.6 mb 0.00 in0.0 mm 0.00 in0.0 mm 0.00 in0.0 mm
08:40 AM 76.0°F24.4°C -33.9°F-36.6°C 0% 8.0 mph SE12.9 kmh SE 16.0 mph25.7 kmh 29.96 in1014.6 mb 0.00 in0.0 mm 0.00 in0.0 mm 0.00 in0.0 mm
08:45 AM 76.5°F24.7°C -33.9°F-36.6°C 0% 8.0 mph SE12.9 kmh SE 17.0 mph27.4 kmh 29.96 in1014.6 mb 0.00 in0.0 mm 0.00 in0.0 mm 0.00 in0.0 mm
08:50 AM 77.0°F25.0°C -33.9°F-36.6°C 0% 8.0 mph SSE12.9 kmh SSE 18.0 mph29.0 kmh 29.96 in1014.6 mb 0.00 in0.0 mm 0.00 in0.0 mm 0.00 in0.0 mm
08:55 AM 77.3°F25.2°C -33.9°F-36.6°C 0% 8.0 mph SSE12.9 kmh SSE 18.0 mph29.0 kmh 29.96 in1014.6 mb 0.00 in0.0 mm 0.00 in0.0 mm 0.00 in0.0 mm
09:00 AM 77.6°F25.3°C -17.5°F-27.5°C 2% 9.0 mph SE14.5 kmh SE 18.0 mph29.0 kmh 29.96 in1014.6 mb 0.00 in0.0 mm 0.00 in0.0 mm 0.00 in0.0 mm
09:05 AM 78.1°F25.6°C 8.9°F-12.8°C 7% 10.0 mph SE16.1 kmh SE 18.0 mph29.0 kmh 29.96 in1014.6 mb 0.00 in0.0 mm 0.00 in0.0 mm 0.00 in0.0 mm
09:10 AM 78.5°F25.8°C 27.0°F-2.8°C 15% 10.0 mph SE16.1 kmh SE 18.0 mph29.0 kmh 29.96 in1014.6 mb 0.00 in0.0 mm 0.00 in0.0 mm 0.00 in0.0 mm
09:15 AM 78.6°F25.9°C 32.9°F0.5°C 19% 10.0 mph SSE16.1 kmh SSE 20.0 mph32.2 kmh 29.96 in1014.6 mb 0.00 in0.0 mm 0.00 in0.0 mm 0.00 in0.0 mm
09:20 AM 78.7°F25.9°C 34.2°F1.2°C 20% 9.0 mph SSE14.5 kmh SSE 20.0 mph32.2 kmh 29.96 in1014.6 mb 0.00 in0.0 mm 0.00 in0.0 mm 0.00 in0.0 mm
09:25 AM 79.0°F26.1°C 40.2°F4.6°C 25% 11.0 mph SSE17.7 kmh SSE 18.0 mph29.0 kmh 29.95 in1014.2 mb 0.00 in0.0 mm 0.00 in0.0 mm 0.00 in0.0 mm
09:30 AM 79.3°F26.3°C 39.4°F4.1°C 24% 11.0 mph SSE17.7 kmh SSE 18.0 mph29.0 kmh 29.95 in1014.2 mb 0.00 in0.0 mm 0.00 in0.0 mm 0.00 in0.0 mm
09:35 AM 79.7°F26.5°C 43.7°F6.5°C 28% 10.0 mph SSE16.1 kmh SSE 18.0 mph29.0 kmh 29.95 in1014.2 mb 0.00 in0.0 mm 0.00 in0.0 mm 0.00 in0.0 mm
09:40 AM 80.3°F26.8°C 50.9°F10.5°C 36% 10.0 mph SSE16.1 kmh SSE 18.0 mph29.0 kmh 29.95 in1014.2 mb 0.00 in0.0 mm 0.00 in0.0 mm 0.00 in0.0 mm
09:45 AM 80.4°F26.9°C 52.5°F11.4°C 38% 10.0 mph SSE16.1 kmh SSE 17.0 mph27.4 kmh 29.95 in1014.2 mb 0.00 in0.0 mm 0.00 in0.0 mm 0.00 in0.0 mm
09:50 AM 80.7°F27.1°C 52.7°F11.5°C 38% 9.0 mph SSE14.5 kmh SSE 17.0 mph27.4 kmh 29.95 in1014.2 mb 0.00 in0.0 mm 0.00 in0.0 mm 0.00 in0.0 mm
09:55 AM 80.8°F27.1°C 53.5°F11.9°C 39% 8.0 mph SSE12.9 kmh SSE 17.0 mph27.4 kmh 29.95 in1014.2 mb 0.00 in0.0 mm 0.00 in0.0 mm 0.00 in0.0 mm
10:00 AM 81.0°F27.2°C 54.4°F12.4°C 40% 9.0 mph SSE14.5 kmh SSE 17.0 mph27.4 kmh 29.95 in1014.2 mb 0.00 in0.0 mm 0.00 in0.0 mm 0.00 in0.0 mm
10:05 AM 80.9°F27.2°C 55.0°F12.8°C 41% 9.0 mph SSE14.5 kmh SSE 17.0 mph27.4 kmh 29.95 in1014.2 mb 0.00 in0.0 mm 0.00 in0.0 mm 0.00 in0.0 mm
10:10 AM 80.7°F27.1°C 55.5°F13.1°C 42% 10.0 mph SSE16.1 kmh SSE 21.0 mph33.8 kmh 29.95 in1014.2 mb 0.00 in0.0 mm 0.00 in0.0 mm 0.00 in0.0 mm
10:15 AM 80.6°F27.0°C 53.4°F11.9°C 39% 10.0 mph SSE16.1 kmh SSE 21.0 mph33.8 kmh 29.94 in1013.9 mb 0.00 in0.0 mm 0.00 in0.0 mm 0.00 in0.0 mm
10:20 AM 80.7°F27.1°C 54.1°F12.3°C 40% 10.0 mph SSE16.1 kmh SSE 21.0 mph33.8 kmh 29.94 in1013.9 mb 0.00 in0.0 mm 0.00 in0.0 mm 0.00 in0.0 mm
10:25 AM 80.9°F27.2°C 52.9°F11.6°C 38% 10.0 mph SSE16.1 kmh SSE 21.0 mph33.8 kmh 29.95 in1014.2 mb 0.00 in0.0 mm 0.00 in0.0 mm 0.00 in0.0 mm
10:30 AM 80.9°F27.2°C 55.7°F13.2°C 42% 11.0 mph SSE17.7 kmh SSE 21.0 mph33.8 kmh 29.95 in1014.2 mb 0.00 in0.0 mm 0.00 in0.0 mm 0.00 in0.0 mm
10:35 AM 80.9°F27.2°C 54.3°F12.4°C 40% 10.0 mph SSE16.1 kmh SSE 21.0 mph33.8 kmh 29.94 in1013.9 mb 0.00 in0.0 mm 0.00 in0.0 mm 0.00 in0.0 mm
10:40 AM 80.8°F27.1°C 54.9°F12.7°C 41% 9.0 mph SSE14.5 kmh SSE 19.0 mph30.6 kmh 29.95 in1014.2 mb 0.00 in0.0 mm 0.00 in0.0 mm 0.00 in0.0 mm
10:45 AM 80.8°F27.1°C 53.5°F11.9°C 39% 10.0 mph SSE16.1 kmh SSE 19.0 mph30.6 kmh 29.94 in1013.9 mb 0.00 in0.0 mm 0.00 in0.0 mm 0.00 in0.0 mm
10:50 AM 81.1°F27.3°C 52.4°F11.3°C 37% 10.0 mph SSE16.1 kmh SSE 18.0 mph29.0 kmh 29.94 in1013.9 mb 0.00 in0.0 mm 0.00 in0.0 mm 0.00 in0.0 mm
10:55 AM 81.8°F27.7°C 55.8°F13.2°C 41% 8.0 mph SSE12.9 kmh SSE 15.0 mph24.1 kmh 29.94 in1013.9 mb 0.00 in0.0 mm 0.00 in0.0 mm 0.00 in0.0 mm
11:00 AM 82.4°F28.0°C 59.5°F15.3°C 46% 8.0 mph SSE12.9 kmh SSE 16.0 mph25.7 kmh 29.94 in1013.9 mb 0.00 in0.0 mm 0.00 in0.0 mm 0.00 in0.0 mm
11:05 AM 82.8°F28.2°C 61.7°F16.5°C 49% 9.0 mph SSE14.5 kmh SSE 20.0 mph32.2 kmh 29.94 in1013.9 mb 0.00 in0.0 mm 0.00 in0.0 mm 0.00 in0.0 mm
11:10 AM 83.1°F28.4°C 63.7°F17.6°C 52% 10.0 mph S16.1 kmh S 20.0 mph32.2 kmh 29.94 in1013.9 mb 0.00 in0.0 mm 0.00 in0.0 mm 0.00 in0.0 mm
11:15 AM 83.3°F28.5°C 64.4°F18.0°C 53% 9.0 mph SSE14.5 kmh SSE 19.0 mph30.6 kmh 29.95 in1014.2 mb 0.00 in0.0 mm 0.00 in0.0 mm 0.00 in0.0 mm
11:20 AM 83.4°F28.6°C 65.5°F18.6°C 55% 10.0 mph SSE16.1 kmh SSE 19.0 mph30.6 kmh 29.94 in1013.9 mb 0.00 in0.0 mm 0.00 in0.0 mm 0.00 in0.0 mm
11:25 AM 83.9°F28.8°C 66.5°F19.2°C 56% 11.0 mph SSE17.7 kmh SSE 18.0 mph29.0 kmh 29.94 in1013.9 mb 0.00 in0.0 mm 0.00 in0.0 mm 0.00 in0.0 mm
11:30 AM 84.5°F29.2°C 68.1°F20.1°C 58% 11.0 mph SSE17.7 kmh SSE 20.0 mph32.2 kmh 29.94 in1013.9 mb 0.00 in0.0 mm 0.00 in0.0 mm 0.00 in0.0 mm
11:35 AM 84.5°F29.2°C 70.0°F21.1°C 62% 11.0 mph S17.7 kmh S 20.0 mph32.2 kmh 29.94 in1013.9 mb 0.00 in0.0 mm 0.00 in0.0 mm 0.00 in0.0 mm
11:40 AM 84.4°F29.1°C 69.5°F20.8°C 61% 11.0 mph S17.7 kmh S 20.0 mph32.2 kmh 29.93 in1013.5 mb 0.00 in0.0 mm 0.00 in0.0 mm 0.00 in0.0 mm
11:45 AM 84.4°F29.1°C 70.0°F21.1°C 62% 12.0 mph S19.3 kmh S 22.0 mph35.4 kmh 29.93 in1013.5 mb 0.00 in0.0 mm 0.00 in0.0 mm 0.00 in0.0 mm
11:50 AM 85.0°F29.4°C 70.5°F21.4°C 62% 11.0 mph S17.7 kmh S 22.0 mph35.4 kmh 29.93 in1013.5 mb 0.00 in0.0 mm 0.00 in0.0 mm 0.00 in0.0 mm
11:55 AM 85.3°F29.6°C 71.3°F21.8°C 63% 9.0 mph S14.5 kmh S 18.0 mph29.0 kmh 29.93 in1013.5 mb 0.00 in0.0 mm 0.00 in0.0 mm 0.00 in0.0 mm
12:00 PM 85.3°F29.6°C 71.7°F22.1°C 64% 9.0 mph SSE14.5 kmh SSE 17.0 mph27.4 kmh 29.93 in1013.5 mb 0.00 in0.0 mm 0.00 in0.0 mm 0.00 in0.0 mm
12:05 PM 85.5°F29.7°C 71.5°F21.9°C 63% 9.0 mph S14.5 kmh S 16.0 mph25.7 kmh 29.93 in1013.5 mb 0.00 in0.0 mm 0.00 in0.0 mm 0.00 in0.0 mm
12:10 PM 85.7°F29.8°C 72.1°F22.3°C 64% 9.0 mph SSE14.5 kmh SSE 17.0 mph27.4 kmh 29.93 in1013.5 mb 0.00 in0.0 mm 0.00 in0.0 mm 0.00 in0.0 mm
12:15 PM 85.9°F29.9°C 72.3°F22.4°C 64% 9.0 mph SSE14.5 kmh SSE 18.0 mph29.0 kmh 29.93 in1013.5 mb 0.00 in0.0 mm 0.00 in0.0 mm 0.00 in0.0 mm
12:20 PM 86.2°F30.1°C 72.6°F22.6°C 64% 9.0 mph S14.5 kmh S 18.0 mph29.0 kmh 29.93 in1013.5 mb 0.00 in0.0 mm 0.00 in0.0 mm 0.00 in0.0 mm
12:25 PM 86.5°F30.3°C 72.9°F22.7°C 64% 9.0 mph SSE14.5 kmh SSE 18.0 mph29.0 kmh 29.92 in1013.2 mb 0.00 in0.0 mm 0.00 in0.0 mm 0.00 in0.0 mm
12:30 PM 86.4°F30.2°C 72.8°F22.7°C 64% 11.0 mph S17.7 kmh S 18.0 mph29.0 kmh 29.92 in1013.2 mb 0.00 in0.0 mm 0.00 in0.0 mm 0.00 in0.0 mm
12:35 PM 86.3°F30.2°C 72.7°F22.6°C 64% 12.0 mph S19.3 kmh S 21.0 mph33.8 kmh 29.92 in1013.2 mb 0.00 in0.0 mm 0.00 in0.0 mm 0.00 in0.0 mm
12:40 PM 86.5°F30.3°C 72.9°F22.7°C 64% 10.0 mph S16.1 kmh S 21.0 mph33.8 kmh 29.92 in1013.2 mb 0.00 in0.0 mm 0.00 in0.0 mm 0.00 in0.0 mm
12:45 PM 86.9°F30.5°C 72.8°F22.7°C 63% 9.0 mph S14.5 kmh S 21.0 mph33.8 kmh 29.92 in1013.2 mb 0.00 in0.0 mm 0.00 in0.0 mm 0.00 in0.0 mm
12:50 PM 87.2°F30.7°C 73.1°F22.8°C 63% 10.0 mph SSE16.1 kmh SSE 21.0 mph33.8 kmh 29.91 in1012.9 mb 0.00 in0.0 mm 0.00 in0.0 mm 0.00 in0.0 mm
12:55 PM 87.2°F30.7°C 72.1°F22.3°C 61% 11.0 mph SSE17.7 kmh SSE 23.0 mph37.0 kmh 29.91 in1012.9 mb 0.00 in0.0 mm 0.00 in0.0 mm 0.00 in0.0 mm
01:00 PM 87.2°F30.7°C 72.6°F22.6°C 62% 12.0 mph SSE19.3 kmh SSE 23.0 mph37.0 kmh 29.90 in1012.5 mb 0.00 in0.0 mm 0.00 in0.0 mm 0.00 in0.0 mm
01:05 PM 87.5°F30.8°C 72.9°F22.7°C 62% 11.0 mph SSE17.7 kmh SSE 22.0 mph35.4 kmh 29.90 in1012.5 mb 0.00 in0.0 mm 0.00 in0.0 mm 0.00 in0.0 mm
01:10 PM 87.6°F30.9°C 73.0°F22.8°C 62% 11.0 mph SSE17.7 kmh SSE 22.0 mph35.4 kmh 29.91 in1012.9 mb 0.00 in0.0 mm 0.00 in0.0 mm 0.00 in0.0 mm
01:15 PM 87.8°F31.0°C 73.2°F22.9°C 62% 10.0 mph SSE16.1 kmh SSE 21.0 mph33.8 kmh 29.91 in1012.9 mb 0.00 in0.0 mm 0.00 in0.0 mm 0.00 in0.0 mm
01:20 PM 87.8°F31.0°C 72.7°F22.6°C 61% 10.0 mph S16.1 kmh S 19.0 mph30.6 kmh 29.91 in1012.9 mb 0.00 in0.0 mm 0.00 in0.0 mm 0.00 in0.0 mm
01:25 PM 87.4°F30.8°C 72.3°F22.4°C 61% 11.0 mph S17.7 kmh S 21.0 mph33.8 kmh 29.91 in1012.9 mb 0.00 in0.0 mm 0.00 in0.0 mm 0.00 in0.0 mm
01:30 PM 87.4°F30.8°C 72.8°F22.7°C 62% 10.0 mph S16.1 kmh S 21.0 mph33.8 kmh 29.91 in1012.9 mb 0.00 in0.0 mm 0.00 in0.0 mm 0.00 in0.0 mm
01:35 PM 87.7°F30.9°C 72.6°F22.6°C 61% 11.0 mph SSE17.7 kmh SSE 20.0 mph32.2 kmh 29.90 in1012.5 mb 0.00 in0.0 mm 0.00 in0.0 mm 0.00 in0.0 mm
01:40 PM 88.0°F31.1°C 72.9°F22.7°C 61% 10.0 mph SSE16.1 kmh SSE 20.0 mph32.2 kmh 29.89 in1012.2 mb 0.00 in0.0 mm 0.00 in0.0 mm 0.00 in0.0 mm
01:45 PM 87.8°F31.0°C 72.2°F22.3°C 60% 10.0 mph SSE16.1 kmh SSE 18.0 mph29.0 kmh 29.89 in1012.2 mb 0.00 in0.0 mm 0.00 in0.0 mm 0.00 in0.0 mm
01:50 PM 87.5°F30.8°C 72.4°F22.4°C 61% 11.0 mph SSE17.7 kmh SSE 20.0 mph32.2 kmh 29.89 in1012.2 mb 0.00 in0.0 mm 0.00 in0.0 mm 0.00 in0.0 mm
01:55 PM 88.3°F31.3°C 73.6°F23.1°C 62% 9.0 mph SSE14.5 kmh SSE 20.0 mph32.2 kmh 29.89 in1012.2 mb 0.00 in0.0 mm 0.00 in0.0 mm 0.00 in0.0 mm
02:00 PM 88.9°F31.6°C 73.7°F23.2°C 61% 8.0 mph S12.9 kmh S 15.0 mph24.1 kmh 29.89 in1012.2 mb 0.00 in0.0 mm 0.00 in0.0 mm 0.00 in0.0 mm
02:05 PM 88.7°F31.5°C 73.5°F23.1°C 61% 9.0 mph S14.5 kmh S 15.0 mph24.1 kmh 29.89 in1012.2 mb 0.00 in0.0 mm 0.00 in0.0 mm 0.00 in0.0 mm
02:10 PM 88.4°F31.3°C 74.2°F23.4°C 63% 8.0 mph S12.9 kmh S 14.0 mph22.5 kmh 29.89 in1012.2 mb 0.00 in0.0 mm 0.00 in0.0 mm 0.00 in0.0 mm
02:15 PM 88.0°F31.1°C 73.8°F23.2°C 63% 8.0 mph S12.9 kmh S 16.0 mph25.7 kmh 29.89 in1012.2 mb 0.00 in0.0 mm 0.00 in0.0 mm 0.00 in0.0 mm
02:20 PM 87.4°F30.8°C 73.3°F22.9°C 63% 8.0 mph S12.9 kmh S 18.0 mph29.0 kmh 29.89 in1012.2 mb 0.00 in0.0 mm 0.00 in0.0 mm 0.00 in0.0 mm
02:25 PM 86.9°F30.5°C 72.8°F22.7°C 63% 8.0 mph S12.9 kmh S 18.0 mph29.0 kmh 29.89 in1012.2 mb 0.00 in0.0 mm 0.00 in0.0 mm 0.00 in0.0 mm
02:30 PM 86.8°F30.4°C 72.7°F22.6°C 63% 8.0 mph S12.9 kmh S 18.0 mph29.0 kmh 29.89 in1012.2 mb 0.00 in0.0 mm 0.00 in0.0 mm 0.00 in0.0 mm
02:35 PM 86.8°F30.4°C 72.2°F22.3°C 62% 7.0 mph SSW11.3 kmh SSW 15.0 mph24.1 kmh 29.89 in1012.2 mb 0.00 in0.0 mm 0.00 in0.0 mm 0.00 in0.0 mm
02:40 PM 86.4°F30.2°C 71.8°F22.1°C 62% 7.0 mph SSW11.3 kmh SSW 20.0 mph32.2 kmh 29.89 in1012.2 mb 0.00 in0.0 mm 0.00 in0.0 mm 0.00 in0.0 mm
02:45 PM 85.9°F29.9°C 70.9°F21.6°C 61% 9.0 mph SSW14.5 kmh SSW 20.0 mph32.2 kmh 29.88 in1011.9 mb 0.00 in0.0 mm 0.00 in0.0 mm 0.00 in0.0 mm
02:50 PM 85.6°F29.8°C 70.6°F21.4°C 61% 8.0 mph SSW12.9 kmh SSW 18.0 mph29.0 kmh 29.88 in1011.9 mb 0.00 in0.0 mm 0.00 in0.0 mm 0.00 in0.0 mm
02:55 PM 85.4°F29.7°C 70.4°F21.3°C 61% 7.0 mph SSW11.3 kmh SSW 16.0 mph25.7 kmh 29.88 in1011.9 mb 0.00 in0.0 mm 0.00 in0.0 mm 0.00 in0.0 mm
03:00 PM 85.2°F29.6°C 70.2°F21.2°C 61% 8.0 mph SSW12.9 kmh SSW 18.0 mph29.0 kmh 29.88 in1011.9 mb 0.00 in0.0 mm 0.00 in0.0 mm 0.00 in0.0 mm
03:05 PM 85.2°F29.6°C 70.2°F21.2°C 61% 9.0 mph SSW14.5 kmh SSW 21.0 mph33.8 kmh 29.88 in1011.9 mb 0.00 in0.0 mm 0.00 in0.0 mm 0.00 in0.0 mm
03:10 PM 85.5°F29.7°C 70.0°F21.1°C 60% 8.0 mph SSW12.9 kmh SSW 21.0 mph33.8 kmh 29.88 in1011.9 mb 0.00 in0.0 mm 0.00 in0.0 mm 0.00 in0.0 mm
03:15 PM 85.6°F29.8°C 69.1°F20.6°C 58% 10.0 mph S16.1 kmh S 22.0 mph35.4 kmh 29.88 in1011.9 mb 0.00 in0.0 mm 0.00 in0.0 mm 0.00 in0.0 mm
03:20 PM 85.4°F29.7°C 68.9°F20.5°C 58% 11.0 mph S17.7 kmh S 22.0 mph35.4 kmh 29.88 in1011.9 mb 0.00 in0.0 mm 0.00 in0.0 mm 0.00 in0.0 mm
03:25 PM 85.0°F29.4°C 69.1°F20.6°C 59% 11.0 mph S17.7 kmh S 26.0 mph41.8 kmh 29.88 in1011.9 mb 0.00 in0.0 mm 0.00 in0.0 mm 0.00 in0.0 mm
03:30 PM 84.6°F29.2°C 69.2°F20.7°C 60% 11.0 mph S17.7 kmh S 26.0 mph41.8 kmh 29.88 in1011.9 mb 0.00 in0.0 mm 0.00 in0.0 mm 0.00 in0.0 mm
03:35 PM 84.3°F29.1°C 69.9°F21.1°C 62% 10.0 mph S16.1 kmh S 22.0 mph35.4 kmh 29.88 in1011.9 mb 0.00 in0.0 mm 0.00 in0.0 mm 0.00 in0.0 mm
03:40 PM 84.1°F28.9°C 70.1°F21.2°C 63% 10.0 mph S16.1 kmh S 22.0 mph35.4 kmh 29.88 in1011.9 mb 0.00 in0.0 mm 0.00 in0.0 mm 0.00 in0.0 mm
03:45 PM 83.8°F28.8°C 69.9°F21.1°C 63% 10.0 mph S16.1 kmh S 22.0 mph35.4 kmh 29.88 in1011.9 mb 0.00 in0.0 mm 0.00 in0.0 mm 0.00 in0.0 mm
03:50 PM 83.5°F28.6°C 70.0°F21.1°C 64% 10.0 mph S16.1 kmh S 22.0 mph35.4 kmh 29.88 in1011.9 mb 0.00 in0.0 mm 0.00 in0.0 mm 0.00 in0.0 mm
03:55 PM 83.2°F28.4°C 69.3°F20.7°C 63% 10.0 mph S16.1 kmh S 28.0 mph45.1 kmh 29.88 in1011.9 mb 0.00 in0.0 mm 0.00 in0.0 mm 0.00 in0.0 mm
04:00 PM 82.8°F28.2°C 69.4°F20.8°C 64% 10.0 mph S16.1 kmh S 28.0 mph45.1 kmh 29.87 in1011.5 mb 0.00 in0.0 mm 0.00 in0.0 mm 0.00 in0.0 mm
04:05 PM 82.5°F28.1°C 69.1°F20.6°C 64% 11.0 mph S17.7 kmh S 22.0 mph35.4 kmh 29.87 in1011.5 mb 0.00 in0.0 mm 0.00 in0.0 mm 0.00 in0.0 mm
04:10 PM 82.4°F28.0°C 69.4°F20.8°C 65% 10.0 mph S16.1 kmh S 22.0 mph35.4 kmh 29.88 in1011.9 mb 0.00 in0.0 mm 0.00 in0.0 mm 0.00 in0.0 mm
04:15 PM 82.2°F27.9°C 69.3°F20.7°C 65% 10.0 mph S16.1 kmh S 26.0 mph41.8 kmh 29.88 in1011.9 mb 0.00 in0.0 mm 0.00 in0.0 mm 0.00 in0.0 mm
04:20 PM 82.0°F27.8°C 69.1°F20.6°C 65% 11.0 mph S17.7 kmh S 26.0 mph41.8 kmh 29.88 in1011.9 mb 0.00 in0.0 mm 0.00 in0.0 mm 0.00 in0.0 mm
04:25 PM 81.8°F27.7°C 68.9°F20.5°C 65% 11.0 mph S17.7 kmh S 23.0 mph37.0 kmh 29.87 in1011.5 mb 0.00 in0.0 mm 0.00 in0.0 mm 0.00 in0.0 mm
04:30 PM 81.6°F27.6°C 68.7°F20.4°C 65% 9.0 mph SSW14.5 kmh SSW 20.0 mph32.2 kmh 29.87 in1011.5 mb 0.00 in0.0 mm 0.00 in0.0 mm 0.00 in0.0 mm
04:35 PM 81.2°F27.3°C 68.3°F20.2°C 65% 8.0 mph SSW12.9 kmh SSW 21.0 mph33.8 kmh 29.87 in1011.5 mb 0.00 in0.0 mm 0.00 in0.0 mm 0.00 in0.0 mm
04:40 PM 80.7°F27.1°C 66.5°F19.2°C 62% 7.0 mph SW11.3 kmh SW 21.0 mph33.8 kmh 29.87 in1011.5 mb 0.00 in0.0 mm 0.00 in0.0 mm 0.00 in0.0 mm
04:45 PM 80.2°F26.8°C 65.1°F18.4°C 60% 6.0 mph SW9.7 kmh SW 17.0 mph27.4 kmh 29.88 in1011.9 mb 0.00 in0.0 mm 0.00 in0.0 mm 0.00 in0.0 mm
04:50 PM 79.3°F26.3°C 58.5°F14.7°C 49% 7.0 mph SW11.3 kmh SW 17.0 mph27.4 kmh 29.88 in1011.9 mb 0.01 in0.3 mm 0.12 in3.0 mm 0.01 in0.3 mm
04:55 PM 77.8°F25.4°C 46.4°F8.0°C 33% 8.0 mph SW12.9 kmh SW 22.0 mph35.4 kmh 29.88 in1011.9 mb 0.02 in0.5 mm 0.12 in3.0 mm 0.02 in0.5 mm
05:00 PM 76.5°F24.7°C 29.8°F-1.2°C 18% 8.0 mph SW12.9 kmh SW 22.0 mph35.4 kmh 29.89 in1012.2 mb 0.03 in0.8 mm 0.01 in0.3 mm 0.03 in0.8 mm
05:05 PM 75.8°F24.3°C -10.6°F-23.7°C 0% 8.0 mph SW12.9 kmh SW 17.0 mph27.4 kmh 29.89 in1012.2 mb 0.05 in1.3 mm 0.24 in6.1 mm 0.05 in1.3 mm
05:10 PM 74.2°F23.4°C 11.7°F-11.3°C 9% 8.0 mph SW12.9 kmh SW 22.0 mph35.4 kmh 29.88 in1011.9 mb 0.07 in1.8 mm 0.24 in6.1 mm 0.07 in1.8 mm
05:15 PM 73.0°F22.8°C -33.3°F-36.3°C 0% 8.0 mph SW12.9 kmh SW 22.0 mph35.4 kmh 29.88 in1011.9 mb 0.08 in2.0 mm 0.12 in3.0 mm 0.08 in2.0 mm
05:20 PM 72.3°F22.4°C -33.3°F-36.3°C 0% 7.0 mph SSW11.3 kmh SSW 14.0 mph22.5 kmh 29.89 in1012.2 mb 0.12 in3.0 mm 0.48 in12.2 mm 0.12 in3.0 mm
05:25 PM 71.9°F22.2°C -33.3°F-36.3°C 0% 7.0 mph SSW11.3 kmh SSW 18.0 mph29.0 kmh 29.87 in1011.5 mb 0.17 in4.3 mm 0.60 in15.2 mm 0.17 in4.3 mm
05:30 PM 71.7°F22.1°C -33.3°F-36.3°C 0% 7.0 mph SSW11.3 kmh SSW 18.0 mph29.0 kmh 29.87 in1011.5 mb 0.18 in4.6 mm 0.12 in3.0 mm 0.18 in4.6 mm
05:35 PM 71.6°F22.0°C -33.3°F-36.3°C 0% 7.0 mph SSW11.3 kmh SSW 13.0 mph20.9 kmh 29.86 in1011.2 mb 0.19 in4.8 mm 0.12 in3.0 mm 0.19 in4.8 mm
05:40 PM 71.7°F22.1°C -33.3°F-36.3°C 0% 7.0 mph S11.3 kmh S 12.0 mph19.3 kmh 29.86 in1011.2 mb 0.19 in4.8 mm 0.00 in0.0 mm 0.19 in4.8 mm
05:45 PM 71.6°F22.0°C -33.3°F-36.3°C 0% 7.0 mph S11.3 kmh S 15.0 mph24.1 kmh 29.88 in1011.9 mb 0.21 in5.3 mm 0.24 in6.1 mm 0.21 in5.3 mm
05:50 PM 71.6°F22.0°C -33.3°F-36.3°C 0% 6.0 mph SSW9.7 kmh SSW 15.0 mph24.1 kmh 29.87 in1011.5 mb 0.21 in5.3 mm 0.00 in0.0 mm 0.22 in5.6 mm
05:55 PM 71.6°F22.0°C -33.3°F-36.3°C 0% 6.0 mph SSW9.7 kmh SSW 13.0 mph20.9 kmh 29.87 in1011.5 mb 0.20 in5.1 mm 0.00 in0.0 mm 0.22 in5.6 mm
06:00 PM 71.5°F21.9°C -33.3°F-36.3°C 0% 5.0 mph SSW8.0 kmh SSW 15.0 mph24.1 kmh 29.87 in1011.5 mb 0.20 in5.1 mm 0.00 in0.0 mm 0.23 in5.8 mm
06:05 PM 71.5°F21.9°C -33.3°F-36.3°C 0% 5.0 mph SSW8.0 kmh SSW 15.0 mph24.1 kmh 29.87 in1011.5 mb 0.18 in4.6 mm 0.00 in0.0 mm 0.23 in5.8 mm
06:10 PM 71.3°F21.8°C -33.3°F-36.3°C 0% 5.0 mph SSW8.0 kmh SSW 14.0 mph22.5 kmh 29.87 in1011.5 mb 0.16 in4.1 mm 0.00 in0.0 mm 0.23 in5.8 mm
06:15 PM 71.2°F21.8°C -33.3°F-36.3°C 0% 5.0 mph SSW8.0 kmh SSW 12.0 mph19.3 kmh 29.87 in1011.5 mb 0.14 in3.6 mm 0.00 in0.0 mm 0.23 in5.8 mm
06:20 PM 71.0°F21.7°C -33.3°F-36.3°C 0% 5.0 mph SSW8.0 kmh SSW 13.0 mph20.9 kmh 29.87 in1011.5 mb 0.09 in2.3 mm 0.00 in0.0 mm 0.23 in5.8 mm
06:25 PM 71.0°F21.7°C -33.3°F-36.3°C 0% 6.0 mph SSW9.7 kmh SSW 13.0 mph20.9 kmh 29.88 in1011.9 mb 0.07 in1.8 mm 0.00 in0.0 mm 0.24 in6.1 mm
06:30 PM 70.9°F21.6°C -33.3°F-36.3°C 0% 6.0 mph SSW9.7 kmh SSW 14.0 mph22.5 kmh 29.88 in1011.9 mb 0.06 in1.5 mm 0.00 in0.0 mm 0.24 in6.1 mm
06:35 PM 70.8°F21.6°C -33.3°F-36.3°C 0% 5.0 mph SSW8.0 kmh SSW 14.0 mph22.5 kmh 29.88 in1011.9 mb 0.05 in1.3 mm 0.00 in0.0 mm 0.24 in6.1 mm
06:40 PM 70.7°F21.5°C -33.3°F-36.3°C 0% 4.0 mph SSW6.4 kmh SSW 10.0 mph16.1 kmh 29.87 in1011.5 mb 0.05 in1.3 mm 0.00 in0.0 mm 0.24 in6.1 mm
06:45 PM 70.6°F21.4°C -33.3°F-36.3°C 0% 5.0 mph S8.0 kmh S 13.0 mph20.9 kmh 29.87 in1011.5 mb 0.03 in0.8 mm 0.00 in0.0 mm 0.24 in6.1 mm
06:50 PM 70.5°F21.4°C -33.3°F-36.3°C 0% 6.0 mph S9.7 kmh S 13.0 mph20.9 kmh 29.87 in1011.5 mb 0.02 in0.5 mm 0.00 in0.0 mm 0.24 in6.1 mm
06:55 PM 70.4°F21.3°C -33.3°F-36.3°C 0% 5.0 mph S8.0 kmh S 11.0 mph17.7 kmh 29.87 in1011.5 mb 0.02 in0.5 mm 0.00 in0.0 mm 0.24 in6.1 mm
07:00 PM 70.4°F21.3°C -33.3°F-36.3°C 0% 6.0 mph S9.7 kmh S 12.0 mph19.3 kmh 29.88 in1011.9 mb 0.01 in0.3 mm 0.00 in0.0 mm 0.24 in6.1 mm
07:05 PM 70.3°F21.3°C -33.3°F-36.3°C 0% 6.0 mph S9.7 kmh S 12.0 mph19.3 kmh 29.88 in1011.9 mb 0.01 in0.3 mm 0.00 in0.0 mm 0.24 in6.1 mm
07:10 PM 70.3°F21.3°C -33.3°F-36.3°C 0% 6.0 mph S9.7 kmh S 13.0 mph20.9 kmh 29.88 in1011.9 mb 0.01 in0.3 mm 0.00 in0.0 mm 0.24 in6.1 mm
07:15 PM 70.2°F21.2°C -33.3°F-36.3°C 0% 6.0 mph SSW9.7 kmh SSW 13.0 mph20.9 kmh 29.89 in1012.2 mb 0.01 in0.3 mm 0.00 in0.0 mm 0.24 in6.1 mm
07:20 PM 70.2°F21.2°C -33.3°F-36.3°C 0% 5.0 mph SW8.0 kmh SW 11.0 mph17.7 kmh 29.89 in1012.2 mb 0.02 in0.5 mm 0.12 in3.0 mm 0.25 in6.4 mm
07:25 PM 69.9°F21.1°C -33.3°F-36.3°C 0% 5.0 mph WSW8.0 kmh WSW 19.0 mph30.6 kmh 29.90 in1012.5 mb 0.01 in0.3 mm 0.00 in0.0 mm 0.25 in6.4 mm
07:30 PM 69.4°F20.8°C -33.3°F-36.3°C 0% 6.0 mph W9.7 kmh W 19.0 mph30.6 kmh 29.90 in1012.5 mb 0.01 in0.3 mm 0.00 in0.0 mm 0.25 in6.4 mm
07:35 PM 69.0°F20.6°C -33.3°F-36.3°C 0% 6.0 mph W9.7 kmh W 16.0 mph25.7 kmh 29.91 in1012.9 mb 0.01 in0.3 mm 0.00 in0.0 mm 0.25 in6.4 mm
07:40 PM 68.7°F20.4°C -33.3°F-36.3°C 0% 5.0 mph W8.0 kmh W 13.0 mph20.9 kmh 29.91 in1012.9 mb 0.01 in0.3 mm 0.00 in0.0 mm 0.25 in6.4 mm
07:45 PM 68.5°F20.3°C -33.3°F-36.3°C 0% 5.0 mph W8.0 kmh W 13.0 mph20.9 kmh 29.91 in1012.9 mb 0.01 in0.3 mm 0.00 in0.0 mm 0.25 in6.4 mm
07:50 PM 68.3°F20.2°C -33.3°F-36.3°C 0% 5.0 mph W8.0 kmh W 15.0 mph24.1 kmh 29.91 in1012.9 mb 0.01 in0.3 mm 0.00 in0.0 mm 0.25 in6.4 mm
07:55 PM 68.1°F20.1°C -33.3°F-36.3°C 0% 5.0 mph W8.0 kmh W 15.0 mph24.1 kmh 29.91 in1012.9 mb 0.01 in0.3 mm 0.00 in0.0 mm 0.25 in6.4 mm
08:00 PM 68.1°F20.1°C -33.3°F-36.3°C 0% 5.0 mph WSW8.0 kmh WSW 11.0 mph17.7 kmh 29.92 in1013.2 mb 0.01 in0.3 mm 0.00 in0.0 mm 0.25 in6.4 mm
08:05 PM 68.0°F20.0°C -33.3°F-36.3°C 0% 5.0 mph WSW8.0 kmh WSW 14.0 mph22.5 kmh 29.93 in1013.5 mb 0.01 in0.3 mm 0.00 in0.0 mm 0.25 in6.4 mm
08:10 PM 67.7°F19.8°C -33.3°F-36.3°C 0% 5.0 mph W8.0 kmh W 14.0 mph22.5 kmh 29.93 in1013.5 mb 0.01 in0.3 mm 0.00 in0.0 mm 0.25 in6.4 mm
08:15 PM 67.5°F19.7°C -33.3°F-36.3°C 0% 7.0 mph W11.3 kmh W 15.0 mph24.1 kmh 29.93 in1013.5 mb 0.01 in0.3 mm 0.00 in0.0 mm 0.25 in6.4 mm
08:20 PM 67.0°F19.4°C -33.3°F-36.3°C 0% 7.0 mph W11.3 kmh W 16.0 mph25.7 kmh 29.94 in1013.9 mb 0.00 in0.0 mm 0.00 in0.0 mm 0.25 in6.4 mm
08:25 PM 66.6°F19.2°C -33.3°F-36.3°C 0% 5.0 mph WSW8.0 kmh WSW 16.0 mph25.7 kmh 29.93 in1013.5 mb 0.00 in0.0 mm 0.00 in0.0 mm 0.25 in6.4 mm
08:30 PM 66.0°F18.9°C -33.3°F-36.3°C 0% 5.0 mph WSW8.0 kmh WSW 10.0 mph16.1 kmh 29.94 in1013.9 mb 0.00 in0.0 mm 0.00 in0.0 mm 0.25 in6.4 mm
08:35 PM 65.6°F18.7°C -33.3°F-36.3°C 0% 5.0 mph WSW8.0 kmh WSW 10.0 mph16.1 kmh 29.94 in1013.9 mb 0.01 in0.3 mm 0.12 in3.0 mm 0.26 in6.6 mm
08:40 PM 65.2°F18.4°C -33.3°F-36.3°C 0% 4.0 mph W6.4 kmh W 10.0 mph16.1 kmh 29.94 in1013.9 mb 0.01 in0.3 mm 0.00 in0.0 mm 0.26 in6.6 mm
08:45 PM 64.6°F18.1°C -33.3°F-36.3°C 0% 5.0 mph WSW8.0 kmh WSW 12.0 mph19.3 kmh 29.94 in1013.9 mb 0.02 in0.5 mm 0.12 in3.0 mm 0.27 in6.9 mm
08:50 PM 64.4°F18.0°C -33.3°F-36.3°C 0% 5.0 mph WSW8.0 kmh WSW 12.0 mph19.3 kmh 29.94 in1013.9 mb 0.02 in0.5 mm 0.00 in0.0 mm 0.27 in6.9 mm
08:55 PM 64.3°F17.9°C -33.3°F-36.3°C 0% 5.0 mph W8.0 kmh W 11.0 mph17.7 kmh 29.94 in1013.9 mb 0.02 in0.5 mm 0.00 in0.0 mm 0.27 in6.9 mm
09:00 PM 64.2°F17.9°C -33.3°F-36.3°C 0% 5.0 mph W8.0 kmh W 11.0 mph17.7 kmh 29.95 in1014.2 mb 0.02 in0.5 mm 0.00 in0.0 mm 0.27 in6.9 mm
09:05 PM 64.2°F17.9°C -33.3°F-36.3°C 0% 4.0 mph WSW6.4 kmh WSW 9.0 mph14.5 kmh 29.95 in1014.2 mb 0.02 in0.5 mm 0.00 in0.0 mm 0.27 in6.9 mm
09:10 PM 64.2°F17.9°C -33.3°F-36.3°C 0% 4.0 mph W6.4 kmh W 9.0 mph14.5 kmh 29.95 in1014.2 mb 0.02 in0.5 mm 0.00 in0.0 mm 0.27 in6.9 mm
09:15 PM 64.2°F17.9°C -33.3°F-36.3°C 0% 4.0 mph WSW6.4 kmh WSW 10.0 mph16.1 kmh 29.95 in1014.2 mb 0.02 in0.5 mm 0.00 in0.0 mm 0.27 in6.9 mm
09:20 PM 64.2°F17.9°C -33.3°F-36.3°C 0% 4.0 mph WSW6.4 kmh WSW 10.0 mph16.1 kmh 29.95 in1014.2 mb 0.02 in0.5 mm 0.00 in0.0 mm 0.27 in6.9 mm
09:25 PM 64.2°F17.9°C -33.3°F-36.3°C 0% 3.0 mph WSW4.8 kmh WSW 8.0 mph12.9 kmh 29.95 in1014.2 mb 0.02 in0.5 mm 0.00 in0.0 mm 0.27 in6.9 mm
09:30 PM 64.2°F17.9°C -33.3°F-36.3°C 0% 4.0 mph W6.4 kmh W 8.0 mph12.9 kmh 29.95 in1014.2 mb 0.02 in0.5 mm 0.00 in0.0 mm 0.27 in6.9 mm
09:35 PM 64.1°F17.8°C -33.3°F-36.3°C 0% 4.0 mph W6.4 kmh W 8.0 mph12.9 kmh 29.95 in1014.2 mb 0.01 in0.3 mm 0.00 in0.0 mm 0.27 in6.9 mm
09:40 PM 64.1°F17.8°C -33.3°F-36.3°C 0% 4.0 mph W6.4 kmh W 9.0 mph14.5 kmh 29.95 in1014.2 mb 0.00 in0.0 mm 0.00 in0.0 mm 0.27 in6.9 mm
09:45 PM 64.0°F17.8°C -33.3°F-36.3°C 0% 4.0 mph W6.4 kmh W 9.0 mph14.5 kmh 29.95 in1014.2 mb 0.00 in0.0 mm 0.00 in0.0 mm 0.27 in6.9 mm
09:50 PM 63.9°F17.7°C -33.3°F-36.3°C 0% 4.0 mph W6.4 kmh W 8.0 mph12.9 kmh 29.95 in1014.2 mb 0.00 in0.0 mm 0.00 in0.0 mm 0.27 in6.9 mm
09:55 PM 63.8°F17.7°C -33.3°F-36.3°C 0% 3.0 mph W4.8 kmh W 7.0 mph11.3 kmh 29.96 in1014.6 mb 0.00 in0.0 mm 0.00 in0.0 mm 0.27 in6.9 mm
10:00 PM 63.6°F17.6°C -33.3°F-36.3°C 0% 3.0 mph W4.8 kmh W 8.0 mph12.9 kmh 29.96 in1014.6 mb 0.00 in0.0 mm 0.00 in0.0 mm 0.27 in6.9 mm
10:05 PM 63.5°F17.5°C -33.3°F-36.3°C 0% 4.0 mph W6.4 kmh W 10.0 mph16.1 kmh 29.97 in1014.9 mb 0.00 in0.0 mm 0.00 in0.0 mm 0.27 in6.9 mm
10:10 PM 63.3°F17.4°C -33.3°F-36.3°C 0% 4.0 mph W6.4 kmh W 10.0 mph16.1 kmh 29.98 in1015.2 mb 0.00 in0.0 mm 0.00 in0.0 mm 0.27 in6.9 mm
10:15 PM 63.1°F17.3°C -33.3°F-36.3°C 0% 4.0 mph W6.4 kmh W 7.0 mph11.3 kmh 29.98 in1015.2 mb 0.00 in0.0 mm 0.00 in0.0 mm 0.27 in6.9 mm
10:20 PM 63.0°F17.2°C -33.3°F-36.3°C 0% 3.0 mph W4.8 kmh W 7.0 mph11.3 kmh 29.98 in1015.2 mb 0.00 in0.0 mm 0.00 in0.0 mm 0.27 in6.9 mm
10:25 PM 62.8°F17.1°C -33.3°F-36.3°C 0% 2.0 mph W3.2 kmh W 6.0 mph9.7 kmh 29.98 in1015.2 mb 0.00 in0.0 mm 0.00 in0.0 mm 0.27 in6.9 mm
10:30 PM 62.7°F17.1°C -33.3°F-36.3°C 0% 3.0 mph W4.8 kmh W 10.0 mph16.1 kmh 29.99 in1015.6 mb 0.00 in0.0 mm 0.00 in0.0 mm 0.27 in6.9 mm
10:35 PM 62.6°F17.0°C -33.3°F-36.3°C 0% 3.0 mph W4.8 kmh W 10.0 mph16.1 kmh 29.99 in1015.6 mb 0.00 in0.0 mm 0.00 in0.0 mm 0.27 in6.9 mm
10:40 PM 62.4°F16.9°C -33.3°F-36.3°C 0% 3.0 mph W4.8 kmh W 7.0 mph11.3 kmh 29.98 in1015.2 mb 0.00 in0.0 mm 0.00 in0.0 mm 0.27 in6.9 mm
10:45 PM 62.3°F16.8°C -33.3°F-36.3°C 0% 3.0 mph W4.8 kmh W 8.0 mph12.9 kmh 29.99 in1015.6 mb 0.00 in0.0 mm 0.00 in0.0 mm 0.27 in6.9 mm
10:50 PM 62.2°F16.8°C -33.3°F-36.3°C 0% 3.0 mph W4.8 kmh W 8.0 mph12.9 kmh 29.99 in1015.6 mb 0.00 in0.0 mm 0.00 in0.0 mm 0.27 in6.9 mm
10:55 PM 62.0°F16.7°C -33.3°F-36.3°C 0% 2.0 mph W3.2 kmh W 6.0 mph9.7 kmh 29.99 in1015.6 mb 0.00 in0.0 mm 0.00 in0.0 mm 0.27 in6.9 mm
11:00 PM 61.9°F16.6°C -33.3°F-36.3°C 0% 2.0 mph W3.2 kmh W 6.0 mph9.7 kmh 30.00 in1015.9 mb 0.00 in0.0 mm 0.00 in0.0 mm 0.27 in6.9 mm
11:05 PM 61.7°F16.5°C -33.3°F-36.3°C 0% 2.0 mph W3.2 kmh W 4.0 mph6.4 kmh 30.00 in1015.9 mb 0.00 in0.0 mm 0.00 in0.0 mm 0.27 in6.9 mm
11:10 PM 61.6°F16.4°C -33.3°F-36.3°C 0% 1.0 mph WSW1.6 kmh WSW 4.0 mph6.4 kmh 30.00 in1015.9 mb 0.00 in0.0 mm 0.00 in0.0 mm 0.27 in6.9 mm
11:15 PM 61.4°F16.3°C -33.3°F-36.3°C 0% 1.0 mph WSW1.6 kmh WSW 4.0 mph6.4 kmh 30.00 in1015.9 mb 0.00 in0.0 mm 0.00 in0.0 mm 0.27 in6.9 mm
11:20 PM 61.3°F16.3°C -33.3°F-36.3°C 0% 2.0 mph WSW3.2 kmh WSW 4.0 mph6.4 kmh 30.00 in1015.9 mb 0.00 in0.0 mm 0.00 in0.0 mm 0.27 in6.9 mm
11:25 PM 61.2°F16.2°C -33.3°F-36.3°C 0% 1.0 mph WSW1.6 kmh WSW 4.0 mph6.4 kmh 30.00 in1015.9 mb 0.00 in0.0 mm 0.00 in0.0 mm 0.27 in6.9 mm
11:30 PM 61.1°F16.2°C -33.3°F-36.3°C 0% 1.0 mph SW1.6 kmh SW 4.0 mph6.4 kmh 30.00 in1015.9 mb 0.00 in0.0 mm 0.00 in0.0 mm 0.27 in6.9 mm
11:35 PM 60.9°F16.1°C -33.3°F-36.3°C 0% 1.0 mph WSW1.6 kmh WSW 5.0 mph8.0 kmh 30.00 in1015.9 mb 0.00 in0.0 mm 0.00 in0.0 mm 0.27 in6.9 mm
11:40 PM 60.8°F16.0°C -33.3°F-36.3°C 0% 2.0 mph WSW3.2 kmh WSW 5.0 mph8.0 kmh 30.00 in1015.9 mb 0.00 in0.0 mm 0.00 in0.0 mm 0.27 in6.9 mm
11:45 PM 60.7°F15.9°C -33.3°F-36.3°C 0% 1.0 mph WSW1.6 kmh WSW 4.0 mph6.4 kmh 30.00 in1015.9 mb 0.00 in0.0 mm 0.00 in0.0 mm 0.27 in6.9 mm
11:50 PM 60.7°F15.9°C -33.3°F-36.3°C 0% 1.0 mph WSW1.6 kmh WSW 4.0 mph6.4 kmh 30.00 in1015.9 mb 0.00 in0.0 mm 0.00 in0.0 mm 0.27 in6.9 mm
11:55 PM 60.6°F15.9°C -33.3°F-36.3°C 0% 1.0 mph WSW1.6 kmh WSW 4.0 mph6.4 kmh 30.00 in1015.9 mb 0.00 in0.0 mm 0.00 in0.0 mm 0.27 in6.9 mm